Adriatic Sea — WDB5553 — position and weather

sailwx.info

Track history (hours):
 
Tides and Currents Weather Stations Pressure Air Temp Water Temp Dewpoint Dewpoint Depression Visibility Wind Speed Wind Dir Waves Ship Positions

Adriatic Sea

Owner: Kirby Offshore Marine, LLC, Seattle, WA. More information available from US FCC via Universal Licensing System and Coast Guard Vessel Documentation Center.

Last reported at 2015-Mar-06 12:33 UTC. Time now 2015-Mar-06 12:43 UTC.
Position N 47°37' W 122°28'.

Length 42 m; draft 5.3 m.

Type: Tug. MMSI: 366910890.

Date/timePositionNaut miles runAvg speedWind from/ knotsBaromVisibWave heightAir tempDewpointWater temp
2015-Mar-06 12:33N 47°37' W 122°28'0 5.1
2015-Mar-06 12:31N 47°37' W 122°28'5 5.2
2015-Mar-06 11:33N 47°42' W 122°28'0 5.3
2015-Mar-06 11:31N 47°42' W 122°28'6 5.8
2015-Mar-06 10:33N 47°48' W 122°28'0 6.1
2015-Mar-06 10:31N 47°48' W 122°28'6 6.4
2015-Mar-06 09:33N 47°54' W 122°30'7 6.9
2015-Mar-06 08:33N 47°59' W 122°37'7 6.2
2015-Mar-06 07:24N 48°06' W 122°40'5 5.8
2015-Mar-06 06:33N 48°09' W 122°45'4 3.8
2015-Mar-06 05:27N 48°13' W 122°49'5 5.8
2015-Mar-06 04:33N 48°18' W 122°48'8 7.6
2015-Mar-06 03:33N 48°25' W 122°45'8 8.3
2015-Mar-06 02:33N 48°34' W 122°45'7 7.2
2015-Mar-06 01:33N 48°41' W 122°44'6 6.1
2015-Mar-06 00:33N 48°47' W 122°45'3 0.3
2015-Mar-05 14:25N 48°50' W 122°43'0 0.0
2015-Mar-05 13:31N 48°50' W 122°43'0 0.0
2015-Mar-05 12:31N 48°50' W 122°43'0 0.0
2015-Mar-05 11:31N 48°50' W 122°43'0 0.0
2015-Mar-05 10:31N 48°50' W 122°43'0 0.0
2015-Mar-05 09:31N 48°50' W 122°43'0 0.0
2015-Mar-05 08:31N 48°50' W 122°43'0 0.0
2015-Mar-05 07:31N 48°50' W 122°43'0 0.0
2015-Mar-05 06:31N 48°50' W 122°43'0 0.0
2015-Mar-05 05:13N 48°50' W 122°43'0 0.0
2015-Mar-05 04:31N 48°50' W 122°43'0 0.0
2015-Mar-05 03:31N 48°50' W 122°43'0 0.2
2015-Mar-05 02:33N 48°49' W 122°43'6 5.9
2015-Mar-05 01:32N 48°43' W 122°44'7 7.3
2015-Mar-05 00:34N 48°38' W 122°37'6 6.4
2015-Mar-04 23:33N 48°43' W 122°31'0 0.0
2015-Mar-04 22:20N 48°43' W 122°31'0 0.2
2015-Mar-04 21:33N 48°43' W 122°31'0 0.0
2015-Mar-04 20:33N 48°43' W 122°31'0 0.0
2015-Mar-04 19:33N 48°43' W 122°31'0 0.0
2015-Mar-04 18:33N 48°43' W 122°31'0 0.1
2015-Mar-04 17:29N 48°43' W 122°31'0 0.0
2015-Mar-04 15:29N 48°43' W 122°31'0 0.0
2015-Mar-04 14:23N 48°43' W 122°31'0 0.0
2015-Mar-04 13:29N 48°43' W 122°31'0 0.0
2015-Mar-04 12:29N 48°43' W 122°31'0 0.0
2015-Mar-04 11:29N 48°43' W 122°31'0 0.0
2015-Mar-04 10:23N 48°43' W 122°31'0 0.0
2015-Mar-04 09:29N 48°43' W 122°31'0 0.0
2015-Mar-04 06:29N 48°43' W 122°31'0 0.0
2015-Mar-04 05:23N 48°43' W 122°31'0 0.0
2015-Mar-04 04:29N 48°43' W 122°31'0 0.0
2015-Mar-04 03:29N 48°43' W 122°31'0 0.0
2015-Mar-03 19:23N 48°43' W 122°31'0 0.0
2015-Mar-03 18:22N 48°43' W 122°31'0 0.0
2015-Mar-03 16:28N 48°43' W 122°31'0 0.0
2015-Mar-03 15:22N 48°43' W 122°31'0 0.0
2015-Mar-03 14:28N 48°43' W 122°31'0 0.0
2015-Mar-03 13:28N 48°43' W 122°31'0 0.0
2015-Mar-03 12:19N 48°43' W 122°31'0 0.0
2015-Mar-03 11:28N 48°43' W 122°31'0 0.0
2015-Mar-03 10:16N 48°43' W 122°31'0 0.0
2015-Mar-03 09:16N 48°43' W 122°31'0 0.0
2015-Mar-03 08:04N 48°43' W 122°31'0 0.0
2015-Mar-03 05:04N 48°43' W 122°31'0 0.0
2015-Mar-03 03:16N 48°43' W 122°31'0 0.0
2015-Mar-03 02:10N 48°43' W 122°31'0 0.0
2015-Mar-03 01:28N 48°43' W 122°31'0 0.0
2015-Mar-03 00:16N 48°43' W 122°31'0 0.0
2015-Mar-02 22:28N 48°43' W 122°31'0 0.0
2015-Mar-02 21:04N 48°43' W 122°31'0 0.0
2015-Mar-02 20:10N 48°43' W 122°31'0 0.0
2015-Mar-02 19:28N 48°43' W 122°31'0 0.0
2015-Mar-02 18:28N 48°43' W 122°31'0 0.0
2015-Mar-02 16:28N 48°43' W 122°31'0 0.0
2015-Mar-02 15:28N 48°43' W 122°31'0 0.0
2015-Mar-02 04:33N 48°43' W 122°31'0 0.0
2015-Mar-02 03:33N 48°43' W 122°31'0 0.0
2015-Mar-02 02:33N 48°43' W 122°31'0 0.0
2015-Mar-02 01:33N 48°43' W 122°31'0 0.0
2015-Mar-02 00:33N 48°43' W 122°31'0 0.0
2015-Mar-01 23:33N 48°43' W 122°31'0 0.0
2015-Mar-01 22:33N 48°43' W 122°31'0 0.0
2015-Mar-01 21:15N 48°43' W 122°31'0 0.0
2015-Mar-01 20:33N 48°43' W 122°31'0 0.0
2015-Mar-01 19:33N 48°43' W 122°31'0 0.0
2015-Mar-01 18:30N 48°43' W 122°31'0 0.0
2015-Mar-01 17:33N 48°43' W 122°31'0 0.0
2015-Mar-01 16:33N 48°43' W 122°31'0 0.0
2015-Mar-01 15:27N 48°43' W 122°31'0 0.0
2015-Mar-01 14:33N 48°43' W 122°31'0 0.0
2015-Mar-01 13:33N 48°43' W 122°31'0 0.0
2015-Mar-01 12:33N 48°43' W 122°31'0 0.0
2015-Mar-01 11:33N 48°43' W 122°31'0 0.0
2015-Mar-01 10:24N 48°43' W 122°31'0 0.0
2015-Mar-01 09:24N 48°43' W 122°31'0 0.0
2015-Mar-01 08:33N 48°43' W 122°31'0 0.0
2015-Mar-01 07:33N 48°43' W 122°31'0 0.0
2015-Mar-01 06:33N 48°43' W 122°31'0 0.0
2015-Mar-01 05:24N 48°43' W 122°31'0 0.0
2015-Mar-01 04:33N 48°43' W 122°31'0 0.0
2015-Mar-01 03:33N 48°43' W 122°31'0 0.0
2015-Mar-01 02:33N 48°43' W 122°31'0 0.0
2015-Mar-01 01:33N 48°43' W 122°31'0 0.0
2015-Mar-01 00:27N 48°43' W 122°31'0 0.0
2015-Feb-28 19:20N 48°43' W 122°31'0 0.0
2015-Feb-28 18:32N 48°43' W 122°31'0 0.0
2015-Feb-28 15:26N 48°43' W 122°31'0 0.0
2015-Feb-28 14:20N 48°43' W 122°31'0 0.0
2015-Feb-28 12:29N 48°43' W 122°31'0 0.0
2015-Feb-28 11:29N 48°43' W 122°31'0 0.0
2015-Feb-28 10:26N 48°43' W 122°31'0 0.0
2015-Feb-27 16:16N 48°43' W 122°31'1 1.8
2015-Feb-27 15:33N 48°43' W 122°32'7 6.8
2015-Feb-27 14:33N 48°37' W 122°38'6 5.9
2015-Feb-27 13:33N 48°32' W 122°42'5 5.4
2015-Feb-27 12:33N 48°27' W 122°45'5 5.5
2015-Feb-27 11:33N 48°23' W 122°51'6 5.5
2015-Feb-27 10:33N 48°20' W 122°58'5 5.5
2015-Feb-27 09:33N 48°17' W 123°05'6 5.6
2015-Feb-27 08:33N 48°14' W 123°12'6 5.8
2015-Feb-27 07:32N 48°12' W 123°21'6 6.1
2015-Feb-27 06:33N 48°12' W 123°30'7 6.1
2015-Feb-27 05:25N 48°12' W 123°40'5 6.0
2015-Feb-27 04:32N 48°13' W 123°48'7 7.0
2015-Feb-27 03:33N 48°13' W 123°58'7 7.1
2015-Feb-27 02:33N 48°16' W 124°08'7 6.9
2015-Feb-27 01:33N 48°19' W 124°17'7 6.6
2015-Feb-27 00:33N 48°22' W 124°26'6 6.2
2015-Feb-26 23:33N 48°25' W 124°35'6 5.7
2015-Feb-26 22:31N 48°26' W 124°43'6 6.6
2015-Feb-26 21:33N 48°26' W 124°53'  
Track history (hours):
 
Tides and Currents Weather Stations Pressure Air Temp Water Temp Dewpoint Dewpoint Depression Visibility Wind Speed Wind Dir Waves Ship Positions

Adriatic Sea

Owner: Kirby Offshore Marine, LLC, Seattle, WA. More information available from US FCC via Universal Licensing System and Coast Guard Vessel Documentation Center.

Last reported at 2015-Mar-06 12:33 UTC. Time now 2015-Mar-06 12:43 UTC.
Position N 47°37' W 122°28'.

Length 42 m; draft 5.3 m.

Type: Tug. MMSI: 366910890.

Date/timePositionNaut miles runAvg speedWind from/ knotsBaromVisibWave heightAir tempDewpointWater temp
2015-Mar-06 12:33N 47°37' W 122°28'0 5.1
2015-Mar-06 12:31N 47°37' W 122°28'5 5.2
2015-Mar-06 11:33N 47°42' W 122°28'0 5.3
2015-Mar-06 11:31N 47°42' W 122°28'6 5.8
2015-Mar-06 10:33N 47°48' W 122°28'0 6.1
2015-Mar-06 10:31N 47°48' W 122°28'6 6.4
2015-Mar-06 09:33N 47°54' W 122°30'7 6.9
2015-Mar-06 08:33N 47°59' W 122°37'7 6.2
2015-Mar-06 07:24N 48°06' W 122°40'5 5.8
2015-Mar-06 06:33N 48°09' W 122°45'4 3.8
2015-Mar-06 05:27N 48°13' W 122°49'5 5.8
2015-Mar-06 04:33N 48°18' W 122°48'8 7.6
2015-Mar-06 03:33N 48°25' W 122°45'8 8.3
2015-Mar-06 02:33N 48°34' W 122°45'7 7.2
2015-Mar-06 01:33N 48°41' W 122°44'6 6.1
2015-Mar-06 00:33N 48°47' W 122°45'3 0.3
2015-Mar-05 14:25N 48°50' W 122°43'0 0.0
2015-Mar-05 13:31N 48°50' W 122°43'0 0.0
2015-Mar-05 12:31N 48°50' W 122°43'0 0.0
2015-Mar-05 11:31N 48°50' W 122°43'0 0.0
2015-Mar-05 10:31N 48°50' W 122°43'0 0.0
2015-Mar-05 09:31N 48°50' W 122°43'0 0.0
2015-Mar-05 08:31N 48°50' W 122°43'0 0.0
2015-Mar-05 07:31N 48°50' W 122°43'0 0.0
2015-Mar-05 06:31N 48°50' W 122°43'0 0.0
2015-Mar-05 05:13N 48°50' W 122°43'0 0.0
2015-Mar-05 04:31N 48°50' W 122°43'0 0.0
2015-Mar-05 03:31N 48°50' W 122°43'0 0.2
2015-Mar-05 02:33N 48°49' W 122°43'6 5.9
2015-Mar-05 01:32N 48°43' W 122°44'7 7.3
2015-Mar-05 00:34N 48°38' W 122°37'6 6.4
2015-Mar-04 23:33N 48°43' W 122°31'0 0.0
2015-Mar-04 22:20N 48°43' W 122°31'0 0.2
2015-Mar-04 21:33N 48°43' W 122°31'0 0.0
2015-Mar-04 20:33N 48°43' W 122°31'0 0.0
2015-Mar-04 19:33N 48°43' W 122°31'0 0.0
2015-Mar-04 18:33N 48°43' W 122°31'0 0.1
2015-Mar-04 17:29N 48°43' W 122°31'0 0.0
2015-Mar-04 15:29N 48°43' W 122°31'0 0.0
2015-Mar-04 14:23N 48°43' W 122°31'0 0.0
2015-Mar-04 13:29N 48°43' W 122°31'0 0.0
2015-Mar-04 12:29N 48°43' W 122°31'0 0.0
2015-Mar-04 11:29N 48°43' W 122°31'0 0.0
2015-Mar-04 10:23N 48°43' W 122°31'0 0.0
2015-Mar-04 09:29N 48°43' W 122°31'0 0.0
2015-Mar-04 06:29N 48°43' W 122°31'0 0.0
2015-Mar-04 05:23N 48°43' W 122°31'0 0.0
2015-Mar-04 04:29N 48°43' W 122°31'0 0.0
2015-Mar-04 03:29N 48°43' W 122°31'0 0.0
2015-Mar-03 19:23N 48°43' W 122°31'0 0.0
2015-Mar-03 18:22N 48°43' W 122°31'0 0.0
2015-Mar-03 16:28N 48°43' W 122°31'0 0.0
2015-Mar-03 15:22N 48°43' W 122°31'0 0.0
2015-Mar-03 14:28N 48°43' W 122°31'0 0.0
2015-Mar-03 13:28N 48°43' W 122°31'0 0.0
2015-Mar-03 12:19N 48°43' W 122°31'0 0.0
2015-Mar-03 11:28N 48°43' W 122°31'0 0.0
2015-Mar-03 10:16N 48°43' W 122°31'0 0.0
2015-Mar-03 09:16N 48°43' W 122°31'0 0.0
2015-Mar-03 08:04N 48°43' W 122°31'0 0.0
2015-Mar-03 05:04N 48°43' W 122°31'0 0.0
2015-Mar-03 03:16N 48°43' W 122°31'0 0.0
2015-Mar-03 02:10N 48°43' W 122°31'0 0.0
2015-Mar-03 01:28N 48°43' W 122°31'0 0.0
2015-Mar-03 00:16N 48°43' W 122°31'0 0.0
2015-Mar-02 22:28N 48°43' W 122°31'0 0.0
2015-Mar-02 21:04N 48°43' W 122°31'0 0.0
2015-Mar-02 20:10N 48°43' W 122°31'0 0.0
2015-Mar-02 19:28N 48°43' W 122°31'0 0.0
2015-Mar-02 18:28N 48°43' W 122°31'0 0.0
2015-Mar-02 16:28N 48°43' W 122°31'0 0.0
2015-Mar-02 15:28N 48°43' W 122°31'0 0.0
2015-Mar-02 04:33N 48°43' W 122°31'0 0.0
2015-Mar-02 03:33N 48°43' W 122°31'0 0.0
2015-Mar-02 02:33N 48°43' W 122°31'0 0.0
2015-Mar-02 01:33N 48°43' W 122°31'0 0.0
2015-Mar-02 00:33N 48°43' W 122°31'0 0.0
2015-Mar-01 23:33N 48°43' W 122°31'0 0.0
2015-Mar-01 22:33N 48°43' W 122°31'0 0.0
2015-Mar-01 21:15N 48°43' W 122°31'0 0.0
2015-Mar-01 20:33N 48°43' W 122°31'0 0.0
2015-Mar-01 19:33N 48°43' W 122°31'0 0.0
2015-Mar-01 18:30N 48°43' W 122°31'0 0.0
2015-Mar-01 17:33N 48°43' W 122°31'0 0.0
2015-Mar-01 16:33N 48°43' W 122°31'0 0.0
2015-Mar-01 15:27N 48°43' W 122°31'0 0.0
2015-Mar-01 14:33N 48°43' W 122°31'0 0.0
2015-Mar-01 13:33N 48°43' W 122°31'0 0.0
2015-Mar-01 12:33N 48°43' W 122°31'0 0.0
2015-Mar-01 11:33N 48°43' W 122°31'0 0.0
2015-Mar-01 10:24N 48°43' W 122°31'0 0.0
2015-Mar-01 09:24N 48°43' W 122°31'0 0.0
2015-Mar-01 08:33N 48°43' W 122°31'0 0.0
2015-Mar-01 07:33N 48°43' W 122°31'0 0.0
2015-Mar-01 06:33N 48°43' W 122°31'0 0.0
2015-Mar-01 05:24N 48°43' W 122°31'0 0.0
2015-Mar-01 04:33N 48°43' W 122°31'0 0.0
2015-Mar-01 03:33N 48°43' W 122°31'0 0.0
2015-Mar-01 02:33N 48°43' W 122°31'0 0.0
2015-Mar-01 01:33N 48°43' W 122°31'0 0.0
2015-Mar-01 00:27N 48°43' W 122°31'0 0.0
2015-Feb-28 19:20N 48°43' W 122°31'0 0.0
2015-Feb-28 18:32N 48°43' W 122°31'0 0.0
2015-Feb-28 15:26N 48°43' W 122°31'0 0.0
2015-Feb-28 14:20N 48°43' W 122°31'0 0.0
2015-Feb-28 12:29N 48°43' W 122°31'0 0.0
2015-Feb-28 11:29N 48°43' W 122°31'0 0.0
2015-Feb-28 10:26N 48°43' W 122°31'0 0.0
2015-Feb-27 16:16N 48°43' W 122°31'1 1.8
2015-Feb-27 15:33N 48°43' W 122°32'7 6.8
2015-Feb-27 14:33N 48°37' W 122°38'6 5.9
2015-Feb-27 13:33N 48°32' W 122°42'5 5.4
2015-Feb-27 12:33N 48°27' W 122°45'5 5.5
2015-Feb-27 11:33N 48°23' W 122°51'6 5.5
2015-Feb-27 10:33N 48°20' W 122°58'5 5.5
2015-Feb-27 09:33N 48°17' W 123°05'6 5.6
2015-Feb-27 08:33N 48°14' W 123°12'6 5.8
2015-Feb-27 07:32N 48°12' W 123°21'6 6.1
2015-Feb-27 06:33N 48°12' W 123°30'7 6.1
2015-Feb-27 05:25N 48°12' W 123°40'5 6.0
2015-Feb-27 04:32N 48°13' W 123°48'7 7.0
2015-Feb-27 03:33N 48°13' W 123°58'7 7.1
2015-Feb-27 02:33N 48°16' W 124°08'7 6.9
2015-Feb-27 01:33N 48°19' W 124°17'7 6.6
2015-Feb-27 00:33N 48°22' W 124°26'6 6.2
2015-Feb-26 23:33N 48°25' W 124°35'6 5.7
2015-Feb-26 22:31N 48°26' W 124°43'6 6.6
2015-Feb-26 21:33N 48°26' W 124°53'  

Dump ship's entire track history